createdAt,value
2018-06-05T00:02:11.530Z,10.67
2018-06-05T00:06:16.895Z,10.23
2018-06-05T00:10:20.866Z,12.57
2018-06-05T00:14:24.455Z,10.63
2018-06-05T00:18:27.946Z,12.33
2018-06-05T00:22:31.615Z,9.70
2018-06-05T00:26:39.026Z,12.43
2018-06-05T00:30:46.472Z,9.20
2018-06-05T00:34:50.850Z,9.97
2018-06-05T00:38:54.984Z,9.47
2018-06-05T00:42:59.768Z,11.70
2018-06-05T00:47:07.749Z,12.47
2018-06-05T00:51:22.519Z,13.57
2018-06-05T00:55:26.118Z,10.37
2018-06-05T00:59:30.243Z,10.97
2018-06-05T01:03:36.828Z,13.10
2018-06-05T01:07:41.856Z,11.03
2018-06-05T01:11:47.166Z,10.53
2018-06-05T01:15:50.909Z,11.23
2018-06-05T01:19:54.438Z,11.90
2018-06-05T01:23:58.001Z,13.63
2018-06-05T01:28:03.607Z,11.97
2018-06-05T01:32:10.153Z,12.53
2018-06-05T01:36:15.697Z,12.40
2018-06-05T01:40:19.451Z,13.80
2018-06-05T01:44:23.124Z,12.43
2018-06-05T01:48:26.646Z,12.10
2018-06-05T01:52:31.778Z,11.87
2018-06-05T01:56:37.780Z,13.03
2018-06-05T02:00:43.888Z,15.87
2018-06-05T02:04:48.794Z,11.90
2018-06-05T02:08:52.642Z,12.00
2018-06-05T02:12:56.242Z,12.33
2018-06-05T02:17:00.446Z,13.30
2018-06-05T02:21:08.039Z,11.43
2018-06-05T02:25:13.192Z,18.23
2018-06-05T02:29:17.818Z,14.07
2018-06-05T02:33:21.355Z,14.07
2018-06-05T02:37:24.882Z,14.73
2018-06-05T02:41:28.068Z,17.13
2018-06-05T02:45:33.060Z,19.90
2018-06-05T02:49:42.093Z,17.83
2018-06-05T02:53:47.024Z,16.77
2018-06-05T02:57:50.846Z,15.90
2018-06-05T03:01:54.395Z,13.83
2018-06-05T03:05:57.938Z,12.50
2018-06-05T03:10:02.309Z,13.60
2018-06-05T03:14:10.931Z,11.40
2018-06-05T03:18:16.776Z,17.93
2018-06-05T03:22:20.554Z,15.93
2018-06-05T03:26:25.218Z,15.73
2018-06-05T03:30:28.958Z,15.37
2018-06-05T03:34:33.774Z,13.13
2018-06-05T03:38:39.492Z,15.13
2018-06-05T03:42:47.337Z,17.97
2018-06-05T03:46:51.018Z,17.40
2018-06-05T03:50:54.555Z,14.83
2018-06-05T03:54:58.172Z,16.40
2018-06-05T03:59:06.161Z,12.87
2018-06-05T04:03:11.959Z,16.37
2018-06-05T04:07:16.918Z,19.10
2018-06-05T04:11:20.575Z,18.80
2018-06-05T04:15:24.107Z,16.50
2018-06-05T04:19:27.655Z,15.57
2018-06-05T04:23:34.061Z,15.33
2018-06-05T04:27:40.817Z,15.43
2018-06-05T04:31:45.835Z,11.33
2018-06-05T04:35:49.646Z,11.40
2018-06-05T04:39:53.178Z,11.83
2018-06-05T04:43:56.865Z,12.07
2018-06-05T04:48:00.378Z,13.40
2018-06-05T04:52:12.138Z,14.53
2018-06-05T04:56:17.464Z,19.10
2018-06-05T05:00:21.251Z,15.03
2018-06-05T05:04:24.783Z,17.70
2018-06-05T05:08:28.440Z,18.50
2018-06-05T05:12:34.313Z,19.40
2018-06-05T05:16:42.394Z,23.90
2018-06-05T05:20:49.417Z,21.03
2018-06-05T05:24:53.105Z,22.90
2018-06-05T05:28:56.650Z,21.47
2018-06-05T05:33:00.723Z,21.30
2018-06-05T05:37:09.403Z,21.97
2018-06-05T05:41:14.282Z,21.00
2018-06-05T05:45:19.165Z,22.37
2018-06-05T05:49:23.126Z,21.43
2018-06-05T05:53:26.321Z,23.50
2018-06-05T05:57:33.734Z,24.63
2018-06-05T06:01:40.872Z,17.30
2018-06-05T06:05:46.253Z,18.57
2018-06-05T06:09:51.697Z,18.97
2018-06-05T06:13:55.251Z,18.97
2018-06-05T06:17:58.751Z,15.83
2018-06-05T06:22:03.208Z,20.43
2018-06-05T06:26:11.080Z,19.27
2018-06-05T06:30:18.506Z,19.43
2018-06-05T06:34:22.114Z,18.73
2018-06-05T06:38:25.472Z,19.48
2018-06-05T06:42:29.346Z,19.90
2018-06-05T06:46:40.394Z,21.63
2018-06-05T06:50:50.446Z,20.08
2018-06-05T06:54:54.100Z,17.65
2018-06-05T06:58:57.702Z,19.37
2018-06-05T07:03:01.283Z,15.93
2018-06-05T07:07:11.535Z,18.45
2018-06-05T07:11:18.275Z,21.52
2018-06-05T07:15:22.150Z,20.55
2018-06-05T07:19:27.825Z,18.87
2018-06-05T07:23:31.337Z,20.00
2018-06-05T07:27:42.001Z,20.32
2018-06-05T07:31:48.251Z,23.57
2018-06-05T07:35:52.253Z,19.57
2018-06-05T07:39:55.766Z,12.50
2018-06-05T07:43:59.334Z,21.48
2018-06-05T07:48:09.822Z,17.55
2018-06-05T07:52:15.403Z,19.15
2018-06-05T07:56:21.921Z,20.00
2018-06-05T08:00:25.617Z,18.52
2018-06-05T08:04:31.191Z,16.17
2018-06-05T08:08:44.648Z,17.75
2018-06-05T08:12:52.146Z,21.47
2018-06-05T08:16:56.087Z,15.13
2018-06-05T08:21:01.690Z,19.10
2018-06-05T08:25:12.523Z,16.83
2018-06-05T08:29:20.533Z,16.73
2018-06-05T08:33:25.589Z,16.60
2018-06-05T08:37:29.616Z,16.80
2018-06-05T08:41:40.616Z,18.23
2018-06-05T08:45:49.594Z,18.62
2018-06-05T08:49:54.103Z,19.23
2018-06-05T08:53:57.650Z,15.93
2018-06-05T08:58:01.278Z,18.67
2018-06-05T09:02:13.412Z,20.30
2018-06-05T09:06:19.986Z,17.17
2018-06-05T09:10:24.201Z,17.12
2018-06-05T09:14:27.936Z,18.10
2018-06-05T09:18:31.446Z,22.17
2018-06-05T09:22:45.959Z,17.43
2018-06-05T09:26:52.370Z,19.90
2018-06-05T09:31:00.966Z,19.50
2018-06-05T09:35:11.922Z,18.40
2018-06-05T09:39:18.057Z,21.40
2018-06-05T09:43:23.183Z,19.10
2018-06-05T09:47:26.967Z,20.37
2018-06-05T09:51:44.897Z,21.90
2018-06-05T09:55:51.326Z,19.70
2018-06-05T09:59:54.848Z,20.40
2018-06-05T10:03:58.521Z,17.73
2018-06-05T10:08:03.325Z,18.43
2018-06-05T10:12:16.642Z,18.63
2018-06-05T10:16:23.227Z,18.27
2018-06-05T10:20:27.090Z,21.07
2018-06-05T10:24:30.664Z,20.80
2018-06-05T10:28:41.958Z,18.17
2018-06-05T10:32:50.408Z,19.37
2018-06-05T10:36:54.559Z,19.67
2018-06-05T10:40:58.210Z,15.50
2018-06-05T10:45:01.818Z,15.43
2018-06-05T10:49:11.035Z,15.63
2018-06-05T10:53:17.886Z,17.17
2018-06-05T10:57:22.925Z,14.27
2018-06-05T11:01:26.493Z,14.33
2018-06-05T11:05:30.019Z,14.40
2018-06-05T11:09:42.208Z,12.43
2018-06-05T11:13:47.437Z,13.57
2018-06-05T11:17:51.315Z,16.80
2018-06-05T11:21:55.231Z,11.93
2018-06-05T11:26:04.692Z,16.57
2018-06-05T11:30:11.099Z,14.23
2018-06-05T11:34:28.470Z,11.07
2018-06-05T11:38:32.049Z,14.73
2018-06-05T11:42:43.643Z,11.33
2018-06-05T11:46:53.338Z,11.50
2018-06-05T11:50:57.455Z,11.23
2018-06-05T11:55:01.027Z,10.37
2018-06-05T11:59:11.532Z,12.20
2018-06-05T12:03:17.556Z,10.10
2018-06-05T12:07:23.382Z,10.60
2018-06-05T12:11:26.931Z,11.30
2018-06-05T12:15:36.047Z,10.67
2018-06-05T12:20:09.870Z,9.07
2018-06-05T12:24:28.456Z,9.83
2018-06-05T12:28:32.158Z,11.10
2018-06-05T12:32:41.889Z,8.63
2018-06-05T12:36:51.793Z,9.67
2018-06-05T12:41:00.267Z,7.80
2018-06-05T12:45:06.560Z,9.23
2018-06-05T12:49:11.773Z,10.47
2018-06-05T12:53:16.660Z,9.10
2018-06-05T12:57:22.700Z,9.23
2018-06-05T13:01:26.043Z,8.47
2018-06-05T13:05:29.596Z,7.33
2018-06-05T13:09:34.187Z,7.93
2018-06-05T13:13:42.490Z,7.73
2018-06-05T13:17:48.657Z,7.30
2018-06-05T13:21:53.642Z,7.43
2018-06-05T13:25:59.174Z,7.83
2018-06-05T13:30:04.914Z,7.50
2018-06-05T13:34:12.496Z,6.90
2018-06-05T13:38:17.731Z,7.80
2018-06-05T13:42:21.404Z,7.77
2018-06-05T13:46:25.094Z,6.90
2018-06-05T13:50:28.615Z,7.40
2018-06-05T13:54:33.423Z,6.63
2018-06-05T13:58:43.591Z,6.93
2018-06-05T14:02:50.426Z,6.77
2018-06-05T14:07:09.181Z,6.63
2018-06-05T14:11:19.419Z,6.23
2018-06-05T14:15:23.262Z,6.20
2018-06-05T14:19:27.105Z,6.30
2018-06-05T14:23:30.632Z,6.93
2018-06-05T14:27:40.454Z,6.40
2018-06-05T14:31:46.621Z,5.70
2018-06-05T14:35:52.896Z,6.83
2018-06-05T14:39:56.450Z,6.57
2018-06-05T14:44:00.226Z,6.07
2018-06-05T14:48:20.074Z,6.00
2018-06-05T14:52:25.134Z,9.23
2018-06-05T14:56:28.699Z,6.17
2018-06-05T15:00:32.607Z,6.10
2018-06-05T15:04:45.601Z,6.70
2018-06-05T15:08:54.830Z,7.07
2018-06-05T15:13:07.323Z,5.93
2018-06-05T15:17:14.928Z,6.50
2018-06-05T15:21:21.278Z,6.00
2018-06-05T15:25:32.253Z,5.57
2018-06-05T15:29:42.551Z,6.60
2018-06-05T15:33:49.499Z,6.63
2018-06-05T15:37:54.277Z,7.57
2018-06-05T15:42:07.719Z,5.47
2018-06-05T15:46:14.275Z,6.57
2018-06-05T15:50:23.560Z,5.80
2018-06-05T15:54:47.339Z,8.80
2018-06-05T15:58:55.040Z,5.70
2018-06-05T16:03:00.650Z,5.87
2018-06-05T16:07:10.295Z,5.47
2018-06-05T16:11:16.409Z,7.23
2018-06-05T16:15:24.699Z,5.87
2018-06-05T16:19:28.366Z,9.10
2018-06-05T16:23:32.122Z,6.03
2018-06-05T16:27:43.909Z,6.13
2018-06-05T16:31:50.298Z,5.57
2018-06-05T16:35:57.344Z,5.60
2018-06-05T16:40:19.109Z,6.20
2018-06-05T16:44:24.816Z,6.47
2018-06-05T16:48:28.497Z,6.23
2018-06-05T16:52:32.273Z,8.53
2018-06-05T16:56:49.250Z,8.17
2018-06-05T17:00:53.802Z,6.67
2018-06-05T17:05:00.051Z,7.60
2018-06-05T17:09:06.713Z,8.53
2018-06-05T17:13:16.069Z,7.33
2018-06-05T17:17:23.610Z,7.87
2018-06-05T17:21:27.362Z,8.50
2018-06-05T17:25:30.878Z,8.73
2018-06-05T17:29:52.338Z,9.20
2018-06-05T17:33:59.563Z,10.03
2018-06-05T17:38:05.665Z,11.33
2018-06-05T17:42:12.999Z,9.27
2018-06-05T17:46:21.686Z,12.40
2018-06-05T17:50:25.342Z,13.17
2018-06-05T17:54:29.091Z,11.90
2018-06-05T17:58:33.415Z,11.43
2018-06-05T18:02:48.197Z,9.30
2018-06-05T18:06:54.447Z,7.47
2018-06-05T18:11:00.230Z,9.77
2018-06-05T18:15:08.595Z,8.87
2018-06-05T18:19:14.574Z,7.70
2018-06-05T18:23:18.580Z,7.47
2018-06-05T18:27:22.369Z,6.93
2018-06-05T18:31:25.934Z,7.27
2018-06-05T18:35:30.751Z,9.03
2018-06-05T18:39:45.630Z,6.63
2018-06-05T18:44:02.112Z,6.63
2018-06-05T18:48:10.267Z,6.30
2018-06-05T18:52:16.462Z,6.97
2018-06-05T18:56:22.943Z,6.63
2018-06-05T19:00:27.643Z,6.57
2018-06-05T19:04:36.844Z,7.90
2018-06-05T19:08:46.712Z,5.80
2018-06-05T19:12:50.373Z,9.00
2018-06-05T19:16:53.954Z,8.37
2018-06-05T19:20:57.435Z,7.90
2018-06-05T19:25:04.825Z,7.03
2018-06-05T19:29:12.888Z,6.37
2018-06-05T19:33:17.062Z,6.50
2018-06-05T19:37:20.666Z,6.50
2018-06-05T19:41:24.271Z,6.60
2018-06-05T19:45:27.875Z,7.13
2018-06-05T19:49:31.630Z,6.57
2018-06-05T19:53:41.124Z,7.40
2018-06-05T19:57:48.366Z,7.47
2018-06-05T20:01:56.963Z,6.93
2018-06-05T20:06:00.566Z,9.10
2018-06-05T20:10:11.371Z,6.87
2018-06-05T20:14:19.397Z,7.27
2018-06-05T20:18:28.531Z,12.37
2018-06-05T20:22:33.825Z,10.20
2018-06-05T20:26:42.483Z,14.17
2018-06-05T20:30:50.338Z,8.60
2018-06-05T20:34:54.071Z,8.80
2018-06-05T20:38:58.938Z,10.23
2018-06-05T20:43:03.327Z,9.50
2018-06-05T20:47:13.218Z,8.63
2018-06-05T20:51:20.783Z,9.27
2018-06-05T20:55:24.436Z,10.13
2018-06-05T20:59:29.094Z,9.73
2018-06-05T21:03:35.419Z,9.43
2018-06-05T21:07:43.627Z,9.03
2018-06-05T21:11:50.291Z,9.23
2018-06-05T21:15:53.890Z,10.33
2018-06-05T21:19:57.654Z,9.20
2018-06-05T21:24:01.372Z,9.47
2018-06-05T21:28:16.746Z,9.77
2018-06-05T21:32:21.600Z,10.90
2018-06-05T21:36:25.139Z,12.10
2018-06-05T21:40:28.747Z,10.30
2018-06-05T21:44:39.802Z,9.47
2018-06-05T21:48:44.812Z,9.97
2018-06-05T21:52:48.439Z,13.00
2018-06-05T21:56:52.051Z,13.50
2018-06-05T22:00:55.631Z,17.57
2018-06-05T22:05:01.279Z,10.57
2018-06-05T22:09:12.085Z,12.10
2018-06-05T22:13:16.290Z,16.33
2018-06-05T22:17:19.975Z,14.53
2018-06-05T22:21:23.447Z,13.50
2018-06-05T22:25:27.352Z,13.77
2018-06-05T22:29:34.584Z,12.03
2018-06-05T22:33:44.342Z,12.90
2018-06-05T22:37:47.905Z,11.17
2018-06-05T22:41:51.908Z,19.87
2018-06-05T22:45:57.963Z,12.43
2018-06-05T22:50:04.675Z,11.63
2018-06-05T22:54:11.431Z,11.87
2018-06-05T22:58:15.651Z,14.07
2018-06-05T23:02:19.386Z,14.13
2018-06-05T23:06:23.238Z,18.70
2018-06-05T23:10:28.022Z,12.67
2018-06-05T23:14:33.292Z,12.47
2018-06-05T23:18:40.972Z,15.23
2018-06-05T23:22:46.229Z,12.73
2018-06-05T23:26:49.790Z,13.93
2018-06-05T23:30:53.321Z,17.17
2018-06-05T23:35:01.227Z,18.17
2018-06-05T23:39:09.453Z,14.07
2018-06-05T23:43:14.170Z,13.27
2018-06-05T23:47:17.781Z,14.17
2018-06-05T23:51:21.387Z,15.20
2018-06-05T23:55:26.035Z,15.30
2018-06-05T23:59:31.503Z,16.70
